Doris — 9HA2632 — position and weather

sailwx.info

Track history (hours):
 
Tides and Currents Weather Stations Pressure Air Temp Water Temp Dewpoint Dewpoint Depression Visibility Wind Speed Wind Dir Waves Ship Positions

Doris

Last reported at 2014-Sep-23 20:28 UTC. Time now 2014-Oct-21 07:18 UTC.
Position N 32°48' W 017°34'.
Warning: this ship's position is 27 days out of date.

Length 182 m; draft 10.4 m.

Type: Cargo ship. MMSI: 215080000.

Date/timePositionNaut miles runAvg speedWind from/ knotsBaromVisibWave heightAir tempDewpointWater temp
2014-Sep-23 20:28N 32°48' W 017°34'  
2014-Sep-20 17:29N 47°11' W 007°17'28112.7
2014-Sep-19 19:17N 50°12' W 001°50'1311.9
2014-Sep-19 18:13N 50°15' W 001°31'811.4
2014-Sep-19 17:33N 50°17' W 001°20'1111.1
2014-Sep-19 16:33N 50°20' W 001°03'1211.8
2014-Sep-19 15:31N 50°24' W 000°45'1212.6
2014-Sep-19 14:33N 50°27' W 000°26'1413.5
2014-Sep-19 13:33N 50°31' W 000°06'1414.0
2014-Sep-19 12:31N 50°35' E 000°16'1313.9
2014-Sep-19 11:33N 50°39' E 000°36'1313.5
2014-Sep-19 10:33N 50°47' E 000°53'1612.7
2014-Sep-19 09:17N 50°57' E 001°13'911.7
2014-Sep-19 08:34N 51°02' E 001°24'1212.1
2014-Sep-19 07:33N 51°10' E 001°39'1312.9
2014-Sep-19 06:33N 51°20' E 001°52'1010.1
2014-Sep-19 05:33N 51°23' E 002°07'1312.4
2014-Sep-19 04:31N 51°22' E 002°28'7 7.1
2014-Sep-19 03:32N 51°25' E 002°39'0 0.1
2014-Sep-19 02:33N 51°24' E 002°39'0 0.1
2014-Sep-19 01:30N 51°25' E 002°39'0 0.0
2014-Sep-19 00:33N 51°25' E 002°39'0 0.0
2014-Sep-18 23:27N 51°25' E 002°39'0 0.0
2014-Sep-18 22:24N 51°25' E 002°39'0 0.0
2014-Sep-18 21:18N 51°25' E 002°39'0 0.0
2014-Sep-18 20:33N 51°25' E 002°39'0 0.1
2014-Sep-18 19:24N 51°25' E 002°39'0 0.1
2014-Sep-18 18:33N 51°24' E 002°39'0 0.0
2014-Sep-18 17:33N 51°24' E 002°39'0 0.0
2014-Sep-18 16:33N 51°24' E 002°39'0 0.0
2014-Sep-18 15:33N 51°24' E 002°39'0 0.0
2014-Sep-18 14:33N 51°24' E 002°39'0 0.0
2014-Sep-18 13:30N 51°24' E 002°39'0 0.1
2014-Sep-18 12:33N 51°24' E 002°39'0 0.1
2014-Sep-18 11:33N 51°25' E 002°39'0 0.0
2014-Sep-18 10:27N 51°25' E 002°39'0 0.0
2014-Sep-18 09:27N 51°25' E 002°39'0 0.0
2014-Sep-18 08:33N 51°25' E 002°39'0 0.0
2014-Sep-18 07:15N 51°25' E 002°39'0 0.2
2014-Sep-18 06:24N 51°25' E 002°38'0 0.1
2014-Sep-18 05:27N 51°25' E 002°38'0 0.0
2014-Sep-18 04:27N 51°24' E 002°39'4 3.7
2014-Sep-18 03:30N 51°23' E 002°43'1111.4
2014-Sep-18 02:31N 51°24' E 003°01'1212.7
2014-Sep-18 01:33N 51°24' E 003°21'1111.4
2014-Sep-18 00:33N 51°26' E 003°39'9 8.8
2014-Sep-17 23:34N 51°20' E 003°49'1 0.9
2014-Sep-17 22:33N 51°19' E 003°49'1 1.2
2014-Sep-17 21:33N 51°18' E 003°50'0 0.2
2014-Sep-17 20:32N 51°18' E 003°50'0 0.0
2014-Sep-17 19:32N 51°18' E 003°50'0 0.0
2014-Sep-17 18:32N 51°18' E 003°50'0 0.0
2014-Sep-17 17:32N 51°18' E 003°50'0 0.0
2014-Sep-17 16:32N 51°18' E 003°50'0 0.0
2014-Sep-17 15:26N 51°18' E 003°50'0 0.0
2014-Sep-17 14:32N 51°18' E 003°50'0 0.0
2014-Sep-17 13:32N 51°18' E 003°50'0 0.0
2014-Sep-17 12:31N 51°18' E 003°50'0 0.0
2014-Sep-17 11:31N 51°18' E 003°50'0 0.0
2014-Sep-17 10:32N 51°18' E 003°50'0 0.0
2014-Sep-17 09:32N 51°18' E 003°50'0 0.0
2014-Sep-17 08:31N 51°18' E 003°50'0 0.0
2014-Sep-17 07:31N 51°18' E 003°50'0 0.0
2014-Sep-17 06:31N 51°18' E 003°50'0 0.0
2014-Sep-17 05:31N 51°18' E 003°50'0 0.0
2014-Sep-17 04:31N 51°18' E 003°50'0 0.0
2014-Sep-17 03:26N 51°18' E 003°50'0 0.0
2014-Sep-17 02:31N 51°18' E 003°50'0 0.0
2014-Sep-17 01:31N 51°18' E 003°50'0 0.0
2014-Sep-17 00:32N 51°18' E 003°50'0 0.0
2014-Sep-16 23:32N 51°18' E 003°50'0 0.0
2014-Sep-16 22:31N 51°18' E 003°50'0 0.0
2014-Sep-16 21:25N 51°18' E 003°50'0 0.0
2014-Sep-16 20:31N 51°18' E 003°50'0 0.0
2014-Sep-16 19:25N 51°18' E 003°50'0 0.0
2014-Sep-16 18:28N 51°18' E 003°50'0 0.0
2014-Sep-16 17:31N 51°18' E 003°50'0 0.0
2014-Sep-16 16:22N 51°18' E 003°50'0 0.0
2014-Sep-16 15:31N 51°18' E 003°50'0 0.0
2014-Sep-16 14:31N 51°18' E 003°50'0 0.0
2014-Sep-16 13:31N 51°18' E 003°50'0 0.0
2014-Sep-16 12:28N 51°18' E 003°50'0 0.0
2014-Sep-16 11:31N 51°18' E 003°50'0 0.0
2014-Sep-16 10:28N 51°18' E 003°50'0 0.0
2014-Sep-16 09:31N 51°18' E 003°50'0 0.0
2014-Sep-16 08:31N 51°18' E 003°50'0 0.0
2014-Sep-16 07:31N 51°18' E 003°50'0 0.0
2014-Sep-16 06:32N 51°18' E 003°50'0 0.0
2014-Sep-16 05:31N 51°18' E 003°50'0 0.0
2014-Sep-16 04:31N 51°18' E 003°50'0 0.0
2014-Sep-16 03:31N 51°18' E 003°50'0 0.0
2014-Sep-16 02:31N 51°18' E 003°50'0 0.0
2014-Sep-16 01:31N 51°18' E 003°50'0 0.0
2014-Sep-16 00:31N 51°18' E 003°50'0 0.0
2014-Sep-15 23:31N 51°18' E 003°50'0 0.0
2014-Sep-15 22:31N 51°18' E 003°50'0 0.0
2014-Sep-15 21:31N 51°18' E 003°50'0 0.0
2014-Sep-15 20:31N 51°18' E 003°50'0 0.0
2014-Sep-15 19:31N 51°18' E 003°50'0 0.0
2014-Sep-15 18:31N 51°18' E 003°50'0 0.0
2014-Sep-15 17:31N 51°18' E 003°50'0 0.0
2014-Sep-15 16:31N 51°18' E 003°50'0 0.0
2014-Sep-15 15:31N 51°18' E 003°50'0 0.0
2014-Sep-15 14:31N 51°18' E 003°50'0 0.0
2014-Sep-15 13:31N 51°18' E 003°50'0 0.0
2014-Sep-15 12:28N 51°18' E 003°50'0 0.0
2014-Sep-15 11:25N 51°18' E 003°50'0 0.0
2014-Sep-15 10:31N 51°18' E 003°50'0 0.0
2014-Sep-15 09:31N 51°18' E 003°50'0 0.0
2014-Sep-15 08:31N 51°18' E 003°50'0 0.0
2014-Sep-15 07:25N 51°18' E 003°50'0 0.0
2014-Sep-15 06:31N 51°18' E 003°50'0 0.0
2014-Sep-15 05:31N 51°18' E 003°50'0 0.0
2014-Sep-15 04:31N 51°18' E 003°50'0 0.0
2014-Sep-15 03:31N 51°18' E 003°50'0 0.0
2014-Sep-15 02:31N 51°18' E 003°50'0 0.0
2014-Sep-15 01:31N 51°18' E 003°50'0 0.0
2014-Sep-15 00:25N 51°18' E 003°50'0 0.0
2014-Sep-14 23:31N 51°18' E 003°50'0 0.0
2014-Sep-14 22:31N 51°18' E 003°50'0 0.0
2014-Sep-14 21:31N 51°18' E 003°50'0 0.0
2014-Sep-14 20:31N 51°18' E 003°50'0 0.0
2014-Sep-14 19:25N 51°18' E 003°50'0 0.0
2014-Sep-14 18:31N 51°18' E 003°50'0 0.0
2014-Sep-14 17:31N 51°18' E 003°50'0 0.0
2014-Sep-14 16:31N 51°18' E 003°50'0 0.0
2014-Sep-14 15:31N 51°18' E 003°50'0 0.0
2014-Sep-14 14:31N 51°18' E 003°50'0 0.0
2014-Sep-14 13:31N 51°18' E 003°50'0 0.0
2014-Sep-14 12:31N 51°18' E 003°50'0 0.0
2014-Sep-14 11:25N 51°18' E 003°50'0 0.0
2014-Sep-14 10:31N 51°18' E 003°50'0 0.0
2014-Sep-14 09:28N 51°18' E 003°50'0 0.0
2014-Sep-14 08:31N 51°18' E 003°50'0 0.0
2014-Sep-14 07:31N 51°18' E 003°50'0 0.0
2014-Sep-14 06:31N 51°18' E 003°50'0 0.0
2014-Sep-14 05:31N 51°18' E 003°50'0 0.0
2014-Sep-14 04:31N 51°18' E 003°50'0 0.0
2014-Sep-14 03:31N 51°18' E 003°50'0 0.0
2014-Sep-14 02:31N 51°18' E 003°50'0 0.0
2014-Sep-14 01:31N 51°18' E 003°50'0 0.0
2014-Sep-13 21:31N 51°18' E 003°50'0 0.0
2014-Sep-13 20:31N 51°18' E 003°50'  
Track history (hours):
 
Tides and Currents Weather Stations Pressure Air Temp Water Temp Dewpoint Dewpoint Depression Visibility Wind Speed Wind Dir Waves Ship Positions

Doris

Last reported at 2014-Sep-23 20:28 UTC. Time now 2014-Oct-21 07:18 UTC.
Position N 32°48' W 017°34'.
Warning: this ship's position is 27 days out of date.

Length 182 m; draft 10.4 m.

Type: Cargo ship. MMSI: 215080000.

Date/timePositionNaut miles runAvg speedWind from/ knotsBaromVisibWave heightAir tempDewpointWater temp
2014-Sep-23 20:28N 32°48' W 017°34'  
2014-Sep-20 17:29N 47°11' W 007°17'28112.7
2014-Sep-19 19:17N 50°12' W 001°50'1311.9
2014-Sep-19 18:13N 50°15' W 001°31'811.4
2014-Sep-19 17:33N 50°17' W 001°20'1111.1
2014-Sep-19 16:33N 50°20' W 001°03'1211.8
2014-Sep-19 15:31N 50°24' W 000°45'1212.6
2014-Sep-19 14:33N 50°27' W 000°26'1413.5
2014-Sep-19 13:33N 50°31' W 000°06'1414.0
2014-Sep-19 12:31N 50°35' E 000°16'1313.9
2014-Sep-19 11:33N 50°39' E 000°36'1313.5
2014-Sep-19 10:33N 50°47' E 000°53'1612.7
2014-Sep-19 09:17N 50°57' E 001°13'911.7
2014-Sep-19 08:34N 51°02' E 001°24'1212.1
2014-Sep-19 07:33N 51°10' E 001°39'1312.9
2014-Sep-19 06:33N 51°20' E 001°52'1010.1
2014-Sep-19 05:33N 51°23' E 002°07'1312.4
2014-Sep-19 04:31N 51°22' E 002°28'7 7.1
2014-Sep-19 03:32N 51°25' E 002°39'0 0.1
2014-Sep-19 02:33N 51°24' E 002°39'0 0.1
2014-Sep-19 01:30N 51°25' E 002°39'0 0.0
2014-Sep-19 00:33N 51°25' E 002°39'0 0.0
2014-Sep-18 23:27N 51°25' E 002°39'0 0.0
2014-Sep-18 22:24N 51°25' E 002°39'0 0.0
2014-Sep-18 21:18N 51°25' E 002°39'0 0.0
2014-Sep-18 20:33N 51°25' E 002°39'0 0.1
2014-Sep-18 19:24N 51°25' E 002°39'0 0.1
2014-Sep-18 18:33N 51°24' E 002°39'0 0.0
2014-Sep-18 17:33N 51°24' E 002°39'0 0.0
2014-Sep-18 16:33N 51°24' E 002°39'0 0.0
2014-Sep-18 15:33N 51°24' E 002°39'0 0.0
2014-Sep-18 14:33N 51°24' E 002°39'0 0.0
2014-Sep-18 13:30N 51°24' E 002°39'0 0.1
2014-Sep-18 12:33N 51°24' E 002°39'0 0.1
2014-Sep-18 11:33N 51°25' E 002°39'0 0.0
2014-Sep-18 10:27N 51°25' E 002°39'0 0.0
2014-Sep-18 09:27N 51°25' E 002°39'0 0.0
2014-Sep-18 08:33N 51°25' E 002°39'0 0.0
2014-Sep-18 07:15N 51°25' E 002°39'0 0.2
2014-Sep-18 06:24N 51°25' E 002°38'0 0.1
2014-Sep-18 05:27N 51°25' E 002°38'0 0.0
2014-Sep-18 04:27N 51°24' E 002°39'4 3.7
2014-Sep-18 03:30N 51°23' E 002°43'1111.4
2014-Sep-18 02:31N 51°24' E 003°01'1212.7
2014-Sep-18 01:33N 51°24' E 003°21'1111.4
2014-Sep-18 00:33N 51°26' E 003°39'9 8.8
2014-Sep-17 23:34N 51°20' E 003°49'1 0.9
2014-Sep-17 22:33N 51°19' E 003°49'1 1.2
2014-Sep-17 21:33N 51°18' E 003°50'0 0.2
2014-Sep-17 20:32N 51°18' E 003°50'0 0.0
2014-Sep-17 19:32N 51°18' E 003°50'0 0.0
2014-Sep-17 18:32N 51°18' E 003°50'0 0.0
2014-Sep-17 17:32N 51°18' E 003°50'0 0.0
2014-Sep-17 16:32N 51°18' E 003°50'0 0.0
2014-Sep-17 15:26N 51°18' E 003°50'0 0.0
2014-Sep-17 14:32N 51°18' E 003°50'0 0.0
2014-Sep-17 13:32N 51°18' E 003°50'0 0.0
2014-Sep-17 12:31N 51°18' E 003°50'0 0.0
2014-Sep-17 11:31N 51°18' E 003°50'0 0.0
2014-Sep-17 10:32N 51°18' E 003°50'0 0.0
2014-Sep-17 09:32N 51°18' E 003°50'0 0.0
2014-Sep-17 08:31N 51°18' E 003°50'0 0.0
2014-Sep-17 07:31N 51°18' E 003°50'0 0.0
2014-Sep-17 06:31N 51°18' E 003°50'0 0.0
2014-Sep-17 05:31N 51°18' E 003°50'0 0.0
2014-Sep-17 04:31N 51°18' E 003°50'0 0.0
2014-Sep-17 03:26N 51°18' E 003°50'0 0.0
2014-Sep-17 02:31N 51°18' E 003°50'0 0.0
2014-Sep-17 01:31N 51°18' E 003°50'0 0.0
2014-Sep-17 00:32N 51°18' E 003°50'0 0.0
2014-Sep-16 23:32N 51°18' E 003°50'0 0.0
2014-Sep-16 22:31N 51°18' E 003°50'0 0.0
2014-Sep-16 21:25N 51°18' E 003°50'0 0.0
2014-Sep-16 20:31N 51°18' E 003°50'0 0.0
2014-Sep-16 19:25N 51°18' E 003°50'0 0.0
2014-Sep-16 18:28N 51°18' E 003°50'0 0.0
2014-Sep-16 17:31N 51°18' E 003°50'0 0.0
2014-Sep-16 16:22N 51°18' E 003°50'0 0.0
2014-Sep-16 15:31N 51°18' E 003°50'0 0.0
2014-Sep-16 14:31N 51°18' E 003°50'0 0.0
2014-Sep-16 13:31N 51°18' E 003°50'0 0.0
2014-Sep-16 12:28N 51°18' E 003°50'0 0.0
2014-Sep-16 11:31N 51°18' E 003°50'0 0.0
2014-Sep-16 10:28N 51°18' E 003°50'0 0.0
2014-Sep-16 09:31N 51°18' E 003°50'0 0.0
2014-Sep-16 08:31N 51°18' E 003°50'0 0.0
2014-Sep-16 07:31N 51°18' E 003°50'0 0.0
2014-Sep-16 06:32N 51°18' E 003°50'0 0.0
2014-Sep-16 05:31N 51°18' E 003°50'0 0.0
2014-Sep-16 04:31N 51°18' E 003°50'0 0.0
2014-Sep-16 03:31N 51°18' E 003°50'0 0.0
2014-Sep-16 02:31N 51°18' E 003°50'0 0.0
2014-Sep-16 01:31N 51°18' E 003°50'0 0.0
2014-Sep-16 00:31N 51°18' E 003°50'0 0.0
2014-Sep-15 23:31N 51°18' E 003°50'0 0.0
2014-Sep-15 22:31N 51°18' E 003°50'0 0.0
2014-Sep-15 21:31N 51°18' E 003°50'0 0.0
2014-Sep-15 20:31N 51°18' E 003°50'0 0.0
2014-Sep-15 19:31N 51°18' E 003°50'0 0.0
2014-Sep-15 18:31N 51°18' E 003°50'0 0.0
2014-Sep-15 17:31N 51°18' E 003°50'0 0.0
2014-Sep-15 16:31N 51°18' E 003°50'0 0.0
2014-Sep-15 15:31N 51°18' E 003°50'0 0.0
2014-Sep-15 14:31N 51°18' E 003°50'0 0.0
2014-Sep-15 13:31N 51°18' E 003°50'0 0.0
2014-Sep-15 12:28N 51°18' E 003°50'0 0.0
2014-Sep-15 11:25N 51°18' E 003°50'0 0.0
2014-Sep-15 10:31N 51°18' E 003°50'0 0.0
2014-Sep-15 09:31N 51°18' E 003°50'0 0.0
2014-Sep-15 08:31N 51°18' E 003°50'0 0.0
2014-Sep-15 07:25N 51°18' E 003°50'0 0.0
2014-Sep-15 06:31N 51°18' E 003°50'0 0.0
2014-Sep-15 05:31N 51°18' E 003°50'0 0.0
2014-Sep-15 04:31N 51°18' E 003°50'0 0.0
2014-Sep-15 03:31N 51°18' E 003°50'0 0.0
2014-Sep-15 02:31N 51°18' E 003°50'0 0.0
2014-Sep-15 01:31N 51°18' E 003°50'0 0.0
2014-Sep-15 00:25N 51°18' E 003°50'0 0.0
2014-Sep-14 23:31N 51°18' E 003°50'0 0.0
2014-Sep-14 22:31N 51°18' E 003°50'0 0.0
2014-Sep-14 21:31N 51°18' E 003°50'0 0.0
2014-Sep-14 20:31N 51°18' E 003°50'0 0.0
2014-Sep-14 19:25N 51°18' E 003°50'0 0.0
2014-Sep-14 18:31N 51°18' E 003°50'0 0.0
2014-Sep-14 17:31N 51°18' E 003°50'0 0.0
2014-Sep-14 16:31N 51°18' E 003°50'0 0.0
2014-Sep-14 15:31N 51°18' E 003°50'0 0.0
2014-Sep-14 14:31N 51°18' E 003°50'0 0.0
2014-Sep-14 13:31N 51°18' E 003°50'0 0.0
2014-Sep-14 12:31N 51°18' E 003°50'0 0.0
2014-Sep-14 11:25N 51°18' E 003°50'0 0.0
2014-Sep-14 10:31N 51°18' E 003°50'0 0.0
2014-Sep-14 09:28N 51°18' E 003°50'0 0.0
2014-Sep-14 08:31N 51°18' E 003°50'0 0.0
2014-Sep-14 07:31N 51°18' E 003°50'0 0.0
2014-Sep-14 06:31N 51°18' E 003°50'0 0.0
2014-Sep-14 05:31N 51°18' E 003°50'0 0.0
2014-Sep-14 04:31N 51°18' E 003°50'0 0.0
2014-Sep-14 03:31N 51°18' E 003°50'0 0.0
2014-Sep-14 02:31N 51°18' E 003°50'0 0.0
2014-Sep-14 01:31N 51°18' E 003°50'0 0.0
2014-Sep-13 21:31N 51°18' E 003°50'0 0.0
2014-Sep-13 20:31N 51°18' E 003°50'  

Dump ship's entire track history